PILOTS ONLINE: 321    ATC ONLINE: 38

KTRK - Truckee Tahoe Airport

Location

City Truckee
Country  United States
Latitude 39° 19' 12" N
Longitude 120° 8' 23" W
Elevation 5900 ft
Type Medium Airport

Runways

01/19 4650 ft / 75 ft
10/28 7000 ft / 100 ft

Weather

METAR
2014/07/28 09:55
KTRK 280955Z AUTO 00000KT 10SM SCT120 11/05 A3032 RMK AO2
TAF
2014/07/28 06:21
TAF KTRK 280520Z 2806/2906 VRB04KT P6SM SCT080 BKN180 
     FM281900 24010KT P6SM BKN080 OVC180 
     FM282200 24010KT P6SM VCSH BKN080 OVC180 
      AMD NOT SKED TIL 281200

Outbound flights

Inbound flights